Historique des mesures à Cassis (13260), France
Quotidien Résumé Janvier 3, 2017 Unités:  US    Métrique   Métrique/US
« Précédent (Jour)
Suivant (Jour) »
Quotidien Hebdomadaire Mensuel Annuel Période au choix
  Maximum: Minimum: Moyenne:
Température: 32 °F 39.9 °F 46.2 °F
Point de rosée: 32 °F 30.4 °F 34.7 °F
Humidité: Humidity % 56 % 61 %
Vitesse du vent: WindSpeedKMH mph 0.0 mph 4.5 mph
Rafales: WindSpeedGustKMH mph - -
Vent:- - East
Pression: 0 in 29.9 in -
Précipitations: 0 in    
Historical Graphs
 
 
Mesures pour : Janvier 3, 2017
Heure Temperature Point de rosée Pression Vent Vitesse du vent Rafales Humidité Pluie (par heure) Conditions
32 °F 32 °F 0 in Calm     Humidity % 0 in SoftwareType W/m2
00:11 48.6 °F 40.3 °F 30 in Calm     73 % 0 in open2300-1.11 W/m2
01:10 48.7 °F 40.5 °F 29.9 in Calm     73 % 0 in open2300-1.11 W/m2
02:11 45.5 °F 35.4 °F 29.9 in Calm     68 % 0 in open2300-1.11 W/m2
03:10 45 °F 34.2 °F 29.9 in South 2.1 mph 2.1 mph 66 % 0 in open2300-1.11 W/m2
04:11 43.7 °F 33.1 °F 29.9 in SSE 4.0 mph 5.0 mph 66 % 0 in open2300-1.11 W/m2
05:10 43.7 °F 32.4 °F 29.9 in Calm   1.4 mph 64 % 0 in open2300-1.11 W/m2
06:11 43.2 °F 32.2 °F 29.9 in East 3.2 mph 3.2 mph 65 % 0 in open2300-1.11 W/m2
07:10 40.8 °F 30.4 °F 29.9 in NNE 11.9 mph 11.9 mph 66 % 0 in open2300-1.11 W/m2
08:11 41.7 °F 31.3 °F 30 in ESE 2.6 mph 5.8 mph 66 % 0 in open2300-1.11 W/m2
09:10 39.9 °F 30.6 °F 30 in North 11.9 mph 21.6 mph 69 % 0 in open2300-1.11 W/m2
10:11 43.3 °F 31.8 °F 30 in WNW 6.1 mph 6.1 mph 64 % 0 in open2300-1.11 W/m2
11:10 45 °F 32.7 °F 30 in WNW 16.9 mph 16.9 mph 62 % 0 in open2300-1.11 W/m2
12:11 47.1 °F 34 °F 30 in North 4.3 mph 6.1 mph 60 % 0 in open2300-1.11 W/m2
13:10 49.8 °F 35.6 °F 30 in NW 2.6 mph 7.2 mph 58 % 0 in open2300-1.11 W/m2
14:11 51.4 °F 36.7 °F 30 in North 3.2 mph 6.1 mph 57 % 0 in open2300-1.11 W/m2
15:10 52.3 °F 37 °F 30 in North 3.5 mph 5.8 mph 56 % 0 in open2300-1.11 W/m2
16:11 51.6 °F 37.2 °F 30 in NW 20.6 mph 20.6 mph 58 % 0 in open2300-1.11 W/m2
17:10 50.2 °F 37.2 °F 30 in North 1.8 mph 2.1 mph 61 % 0 in open2300-1.11 W/m2
18:11 48.7 °F 36.3 °F 30.1 in North 2.9 mph 4.0 mph 62 % 0 in open2300-1.11 W/m2
19:10 48.2 °F 35.8 °F 30.1 in NNE 1.8 mph 4.7 mph 62 % 0 in open2300-1.11 W/m2
20:11 47.8 °F 35.4 °F 30.1 in NNE 4.0 mph 5.8 mph 62 % 0 in open2300-1.11 W/m2
21:10 48.2 °F 35.4 °F 30.1 in NNE 2.6 mph 3.5 mph 61 % 0 in open2300-1.11 W/m2
22:11 48.4 °F 35.6 °F 30.1 in North 3.5 mph 4.7 mph 61 % 0 in open2300-1.11 W/m2
23:10 48.7 °F 35.4 °F 30.1 in North 3.2 mph 3.5 mph 60 % 0 in open2300-1.11 W/m2
Observations météo à CASSIS
WU-History script by Weather Underground - 1 mb